Vremea acum in Chisineu Cris - Romania

Vrei sa afli care e starea vremii acum in Arad - Romania? Dorim sa iti furnizam starea vremii pentru Arad - Romania. Starea vremii Arad - Romania pentru astazi.

Vremea acum in Chisineu Cris

Temperatura: 13 °C

Se simte ca: 11.2 °C
Innorat: 0 %
Precipitatii: 72 %
Presiune atmosferica: 1017 hPa
Umiditate: 58%
Vizibilitate: 10 km
Vantul bate din SSE cu 20.2 km/h

Evolutia vremii in Chisineu Cris pe ore

Ora: 00:00
Ploi pe porţiuni în apropiere
Temperatura: 11.1°C
Sansa de precipitatii: 72%
Ora Descriere Temp Se simte Precipitatii Umiditate Vant
00:00Ploi pe porţiuni în apropiere11.1°8.9°72%65%SE 18.7 KM/H
01:00Ploi pe porţiuni în apropiere10.8°8.6°75%66%SE 17.6 KM/H
02:00Ploi pe porţiuni în apropiere10.6°8.4°78%66%SE 16.9 KM/H
03:00Parțial noros9.9°7.9°52%72%SE 14.8 KM/H
04:00Ploi pe porţiuni în apropiere9.3°7.3°26%77%SE 13 KM/H
05:00Parțial noros8.6°6.8°0%82%SE 10.8 KM/H
06:00Parțial noros10°8.2°0%78%SE 13.7 KM/H
07:00Parțial noros11.4°9.5°0%75%SE 16.9 KM/H
08:00Parțial noros12.8°10.9°0%71%SSE 19.8 KM/H
09:00Parțial noros14.6°13.3°0%67%SSE 20.9 KM/H
10:00Parțial noros16.4°15.8°0%62%SSE 22.3 KM/H
11:00Parțial noros18.2°18.2°0%58%S 23.4 KM/H
12:00Parțial noros19.2°19.2°0%56%S 22.3 KM/H
13:00Parțial noros20.1°20.1°0%54%S 21.6 KM/H
14:00Parțial noros21.1°21.1°0%52%S 20.5 KM/H
15:00Parțial noros21°21°0%53%S 20.2 KM/H
16:00Parțial noros20.9°20.9°0%54%S 19.4 KM/H
17:00Parțial noros20.8°20.8°0%55%S 19.1 KM/H
18:00Parțial noros19.8°19.8°0%61%S 16.9 KM/H
19:00Parțial noros18.8°18.8°0%68%S 14.4 KM/H
20:00Parțial noros17.8°17.8°0%74%S 12.2 KM/H
21:00Parțial noros17.1°17.1°0%74%S 12.6 KM/H
22:00Parțial noros16.5°16.5°0%75%SSE 12.6 KM/H
23:00Parțial noros15.8°15.8°0%75%SSE 13 KM/H